createdAt,value
2022-09-16T00:00:56.952Z,96345.95
2022-09-16T00:03:26.330Z,96345.16
2022-09-16T00:05:54.155Z,96342.84
2022-09-16T00:08:22.719Z,96342.45
2022-09-16T00:10:50.391Z,96346.53
2022-09-16T00:13:18.241Z,96358.21
2022-09-16T00:15:48.685Z,96358.98
2022-09-16T00:18:16.601Z,96350.23
2022-09-16T00:20:48.922Z,96347.12
2022-09-16T00:23:17.407Z,96355.89
2022-09-16T00:25:45.045Z,96352.42
2022-09-16T00:28:12.623Z,96359.23
2022-09-16T00:30:40.135Z,96359.44
2022-09-16T00:33:08.993Z,96356.55
2022-09-16T00:35:36.677Z,96356.75
2022-09-16T00:38:04.233Z,96352.68
2022-09-16T00:40:31.911Z,96365.33
2022-09-16T00:43:01.365Z,96364.34
2022-09-16T00:45:30.682Z,96360.49
2022-09-16T00:48:01.743Z,96355.43
2022-09-16T00:50:53.938Z,96348.83
2022-09-16T00:53:24.292Z,96360.52
2022-09-16T00:55:54.143Z,96364.39
2022-09-16T00:58:31.095Z,96366.17
2022-09-16T01:00:58.691Z,96365.41
2022-09-16T01:03:28.605Z,96359.20
2022-09-16T01:05:56.072Z,96358.66
2022-09-16T01:08:24.307Z,96368.73
2022-09-16T01:10:52.484Z,96370.69
2022-09-16T01:13:20.178Z,96368.72
2022-09-16T01:15:51.430Z,96370.86
2022-09-16T01:18:22.994Z,96366.59
2022-09-16T01:21:29.260Z,96366.02
2022-09-16T01:24:19.803Z,96362.34
2022-09-16T01:27:12.033Z,96366.23
2022-09-16T01:29:58.593Z,96368.16
2022-09-16T01:32:38.962Z,96369.91
2022-09-16T01:35:26.995Z,96371.09
2022-09-16T01:38:09.544Z,96370.31
2022-09-16T01:41:03.766Z,96373.03
2022-09-16T01:43:59.482Z,96373.22
2022-09-16T01:46:36.679Z,96373.80
2022-09-16T01:49:10.677Z,96373.40
2022-09-16T01:51:56.928Z,96375.53
2022-09-16T01:54:28.121Z,96381.36
2022-09-16T01:57:04.788Z,96381.54
2022-09-16T01:59:44.463Z,96385.42
2022-09-16T02:02:15.747Z,96385.02
2022-09-16T02:04:49.674Z,96387.55
2022-09-16T02:07:19.447Z,96391.04
2022-09-16T02:09:50.474Z,96387.17
2022-09-16T02:12:24.610Z,96391.25
2022-09-16T02:14:54.870Z,96388.14
2022-09-16T02:17:26.011Z,96386.01
2022-09-16T02:20:03.618Z,96393.94
2022-09-16T02:22:41.030Z,96392.41
2022-09-16T02:25:10.694Z,96392.98
2022-09-16T02:27:39.420Z,96403.08
2022-09-16T02:30:09.989Z,96413.36
2022-09-16T02:32:43.850Z,96420.73
2022-09-16T02:35:14.200Z,96423.27
2022-09-16T02:37:51.848Z,96430.06
2022-09-16T02:40:25.705Z,96433.55
2022-09-16T02:42:56.295Z,96435.48
2022-09-16T02:45:36.161Z,96437.62
2022-09-16T02:48:13.048Z,96440.52
2022-09-16T02:50:47.491Z,96442.31
2022-09-16T02:53:36.052Z,96443.66
2022-09-16T02:56:07.229Z,96456.26
2022-09-16T02:58:35.164Z,96457.44
2022-09-16T03:01:03.501Z,96459.38
2022-09-16T03:03:33.109Z,96460.92
2022-09-16T03:06:16.111Z,96460.34
2022-09-16T03:08:45.208Z,96452.95
2022-09-16T03:11:34.679Z,96454.31
2022-09-16T03:14:11.705Z,96466.75
2022-09-16T03:17:02.974Z,96474.50
2022-09-16T03:20:11.738Z,96475.28
2022-09-16T03:23:02.613Z,96476.45
2022-09-16T03:25:42.671Z,96483.23
2022-09-16T03:28:16.975Z,96481.30
2022-09-16T03:31:11.980Z,96491.39
2022-09-16T03:33:43.215Z,96488.67
2022-09-16T03:36:14.441Z,96481.11
2022-09-16T03:38:44.802Z,96482.47
2022-09-16T03:41:14.971Z,96476.45
2022-09-16T03:44:03.522Z,96482.47
2022-09-16T03:46:28.580Z,96486.33
2022-09-16T03:48:58.941Z,96497.78
2022-09-16T03:51:27.133Z,96491.98
2022-09-16T03:53:58.262Z,96487.87
2022-09-16T03:56:30.660Z,96495.03
2022-09-16T03:59:00.211Z,96496.80
2022-09-16T04:01:32.865Z,96495.03
2022-09-16T04:04:01.500Z,96499.70
2022-09-16T04:06:30.337Z,96500.68
2022-09-16T04:09:02.179Z,96506.48
2022-09-16T04:11:32.643Z,96504.54
2022-09-16T04:14:04.865Z,96510.37
2022-09-16T04:16:32.736Z,96513.27
2022-09-16T04:19:00.085Z,96514.62
2022-09-16T04:21:28.819Z,96519.48
2022-09-16T04:23:56.139Z,96517.53
2022-09-16T04:26:23.723Z,96516.77
2022-09-16T04:28:54.656Z,96520.06
2022-09-16T04:31:22.620Z,96523.55
2022-09-16T04:33:50.491Z,96522.19
2022-09-16T04:36:19.729Z,96527.63
2022-09-16T04:38:48.389Z,96532.47
2022-09-16T04:41:20.415Z,96531.11
2022-09-16T04:43:57.000Z,96537.34
2022-09-16T04:46:32.129Z,96535.78
2022-09-16T04:49:00.161Z,96521.61
2022-09-16T04:51:44.348Z,96532.30
2022-09-16T04:54:11.797Z,96532.70
2022-09-16T04:56:39.427Z,96534.67
2022-09-16T04:59:07.112Z,96534.09
2022-09-16T05:01:37.103Z,96519.52
2022-09-16T05:04:05.927Z,96531.94
2022-09-16T05:06:36.044Z,96531.63
2022-09-16T05:09:05.189Z,96537.34
2022-09-16T05:11:34.711Z,96537.84
2022-09-16T05:14:03.244Z,96544.66
2022-09-16T05:16:32.190Z,96541.34
2022-09-16T05:21:54.028Z,96535.41
2022-09-16T05:24:41.280Z,96549.80
2022-09-16T05:27:13.789Z,96553.39
2022-09-16T05:30:02.862Z,96557.12
2022-09-16T05:32:30.565Z,96554.56
2022-09-16T05:34:58.175Z,96552.11
2022-09-16T05:37:25.631Z,96550.69
2022-09-16T05:39:53.653Z,96553.91
2022-09-16T05:42:21.035Z,96544.84
2022-09-16T05:44:48.853Z,96543.23
2022-09-16T05:47:18.372Z,96545.14
2022-09-16T05:49:45.827Z,96545.50
2022-09-16T05:52:13.312Z,96535.79
2022-09-16T05:54:43.908Z,96541.82
2022-09-16T05:57:11.348Z,96540.92
2022-09-16T05:59:40.600Z,96547.44
2022-09-16T06:02:11.671Z,96547.22
2022-09-16T06:04:42.487Z,96554.33
2022-09-16T06:07:09.998Z,96565.05
2022-09-16T06:09:37.454Z,96567.50
2022-09-16T06:12:05.050Z,96569.65
2022-09-16T06:14:32.422Z,96572.00
2022-09-16T06:16:59.706Z,96574.06
2022-09-16T06:19:27.327Z,96580.50
2022-09-16T06:24:58.359Z,96572.48
2022-09-16T06:27:25.966Z,96578.22
2022-09-16T06:29:53.731Z,96573.61
2022-09-16T06:32:24.228Z,96565.39
2022-09-16T06:37:53.663Z,96569.30
2022-09-16T06:40:21.265Z,96569.74
2022-09-16T06:42:48.895Z,96577.94
2022-09-16T06:45:16.318Z,96580.55
2022-09-16T06:47:44.076Z,96576.08
2022-09-16T06:50:13.582Z,96581.97
2022-09-16T06:52:41.031Z,96583.51
2022-09-16T06:55:08.981Z,96597.57
2022-09-16T06:57:36.514Z,96594.31
2022-09-16T07:00:06.788Z,96598.52
2022-09-16T07:02:49.434Z,96596.88
2022-09-16T07:05:16.841Z,96605.34
2022-09-16T07:07:44.058Z,96605.09
2022-09-16T07:10:11.211Z,96611.61
2022-09-16T07:12:38.379Z,96612.66
2022-09-16T07:15:06.305Z,96618.23
2022-09-16T07:17:38.480Z,96615.45
2022-09-16T07:20:07.718Z,96625.77
2022-09-16T07:22:35.677Z,96616.92
2022-09-16T07:25:06.060Z,96625.88
2022-09-16T07:27:33.522Z,96622.33
2022-09-16T07:30:01.056Z,96625.52
2022-09-16T07:32:29.730Z,96623.29
2022-09-16T07:34:57.520Z,96610.93
2022-09-16T07:37:24.672Z,96600.53
2022-09-16T07:39:53.683Z,96599.95
2022-09-16T07:42:24.349Z,96614.91
2022-09-16T07:44:51.503Z,96620.03
2022-09-16T07:47:22.285Z,96619.64
2022-09-16T07:49:48.471Z,96615.93
2022-09-16T07:52:16.060Z,96625.56
2022-09-16T07:54:43.360Z,96624.80
2022-09-16T07:57:10.527Z,96620.72
2022-09-16T07:59:37.932Z,96621.48
2022-09-16T08:02:05.567Z,96628.98
2022-09-16T08:04:33.032Z,96623.72
2022-09-16T08:07:00.301Z,96625.22
2022-09-16T08:09:38.180Z,96627.14
2022-09-16T08:11:56.965Z,96619.95
2022-09-16T08:14:24.421Z,96623.68
2022-09-16T08:16:51.960Z,96620.45
2022-09-16T08:19:21.735Z,96614.73
2022-09-16T08:21:49.585Z,96606.56
2022-09-16T08:24:20.229Z,96606.80
2022-09-16T08:26:49.833Z,96605.39
2022-09-16T08:29:18.226Z,96609.30
2022-09-16T08:31:48.127Z,96616.10
2022-09-16T08:34:17.567Z,96618.75
2022-09-16T08:36:45.246Z,96632.20
2022-09-16T08:39:12.444Z,96620.29
2022-09-16T08:41:59.734Z,96622.86
2022-09-16T08:44:47.156Z,96626.31
2022-09-16T08:47:25.667Z,96629.73
2022-09-16T08:49:56.537Z,96619.83
2022-09-16T08:52:33.271Z,96624.67
2022-09-16T08:58:18.626Z,96626.98
2022-09-16T09:00:55.542Z,96625.47
2022-09-16T09:03:40.998Z,96613.47
2022-09-16T09:06:28.428Z,96613.67
2022-09-16T09:08:59.162Z,96615.64
2022-09-16T09:11:44.972Z,96613.15
2022-09-16T09:14:38.599Z,96612.93
2022-09-16T09:17:48.008Z,96615.55
2022-09-16T09:20:27.217Z,96628.11
2022-09-16T09:23:15.133Z,96628.86
2022-09-16T09:25:54.101Z,96625.48
2022-09-16T09:28:34.098Z,96620.04
2022-09-16T09:31:12.644Z,96619.52
2022-09-16T09:34:12.461Z,96617.55
2022-09-16T09:36:53.023Z,96620.69
2022-09-16T09:39:50.368Z,96616.17
2022-09-16T09:42:21.375Z,96616.91
2022-09-16T09:45:02.447Z,96615.16
2022-09-16T09:47:34.055Z,96620.79
2022-09-16T09:50:05.293Z,96617.05
2022-09-16T09:52:39.162Z,96608.44
2022-09-16T09:55:17.118Z,96606.53
2022-09-16T09:57:51.054Z,96599.40
2022-09-16T10:00:21.129Z,96596.45
2022-09-16T10:02:50.197Z,96586.81
2022-09-16T10:05:27.069Z,96580.30
2022-09-16T10:08:01.690Z,96574.14
2022-09-16T10:10:32.450Z,96574.69
2022-09-16T10:13:10.684Z,96591.33
2022-09-16T10:15:39.011Z,96595.77
2022-09-16T10:18:22.550Z,96592.50
2022-09-16T10:21:05.377Z,96593.93
2022-09-16T10:23:34.288Z,96593.55
2022-09-16T10:26:12.083Z,96583.48
2022-09-16T10:28:55.458Z,96576.11
2022-09-16T10:31:24.263Z,96579.64
2022-09-16T10:34:00.608Z,96578.11
2022-09-16T10:36:32.966Z,96581.67
2022-09-16T10:39:04.897Z,96576.77
2022-09-16T10:41:46.953Z,96581.08
2022-09-16T10:44:30.238Z,96584.91
2022-09-16T10:47:18.072Z,96581.89
2022-09-16T10:49:51.835Z,96582.45
2022-09-16T10:52:28.877Z,96585.03
2022-09-16T10:54:56.637Z,96596.22
2022-09-16T10:57:32.594Z,96585.58
2022-09-16T11:00:15.749Z,96581.03
2022-09-16T11:02:53.484Z,96579.97
2022-09-16T11:05:39.415Z,96578.22
2022-09-16T11:08:36.204Z,96573.09
2022-09-16T11:11:20.447Z,96582.10
2022-09-16T11:14:00.244Z,96575.44
2022-09-16T11:16:54.215Z,96567.44
2022-09-16T11:19:49.243Z,96564.08
2022-09-16T11:22:38.507Z,96562.34
2022-09-16T11:25:10.572Z,96566.53
2022-09-16T11:28:00.761Z,96564.36
2022-09-16T11:30:35.665Z,96563.55
2022-09-16T11:33:17.382Z,96555.23
2022-09-16T11:36:12.298Z,96555.45
2022-09-16T11:38:46.389Z,96553.95
2022-09-16T11:41:35.911Z,96552.33
2022-09-16T11:44:12.875Z,96554.39
2022-09-16T11:46:46.663Z,96552.76
2022-09-16T11:49:34.237Z,96549.33
2022-09-16T11:52:11.015Z,96544.69
2022-09-16T11:54:45.013Z,96549.14
2022-09-16T11:57:18.307Z,96550.42
2022-09-16T11:59:49.832Z,96547.23
2022-09-16T12:02:25.985Z,96546.97
2022-09-16T12:05:09.180Z,96542.70
2022-09-16T12:07:41.521Z,96537.81
2022-09-16T12:10:27.320Z,96537.07
2022-09-16T12:13:08.442Z,96532.10
2022-09-16T12:15:41.479Z,96531.91
2022-09-16T12:18:28.691Z,96523.69
2022-09-16T12:21:18.317Z,96526.10
2022-09-16T12:23:48.848Z,96518.97
2022-09-16T12:26:27.856Z,96511.75
2022-09-16T12:29:07.226Z,96510.18
2022-09-16T12:32:05.266Z,96509.47
2022-09-16T12:34:49.493Z,96506.58
2022-09-16T12:37:48.512Z,96513.73
2022-09-16T12:40:23.961Z,96517.87
2022-09-16T12:43:11.652Z,96513.34
2022-09-16T12:46:02.822Z,96510.87
2022-09-16T12:48:43.073Z,96501.34
2022-09-16T12:51:20.946Z,96503.50
2022-09-16T12:54:11.992Z,96505.14
2022-09-16T12:56:48.543Z,96510.25
2022-09-16T12:59:34.663Z,96520.11
2022-09-16T13:02:16.859Z,96536.73
2022-09-16T13:04:54.448Z,96538.22
2022-09-16T13:07:25.168Z,96534.44
2022-09-16T13:10:05.351Z,96535.84
2022-09-16T13:12:43.958Z,96541.29
2022-09-16T13:15:06.796Z,96545.29
2022-09-16T13:17:38.485Z,96546.34
2022-09-16T13:20:17.891Z,96546.09
2022-09-16T13:23:15.496Z,96561.30
2022-09-16T13:26:04.959Z,96562.70
2022-09-16T13:28:36.049Z,96567.36
2022-09-16T13:31:18.201Z,96561.13
2022-09-16T13:34:01.647Z,96563.36
2022-09-16T13:36:33.622Z,96564.77
2022-09-16T13:39:05.092Z,96563.11
2022-09-16T13:41:47.245Z,96558.95
2022-09-16T13:44:32.120Z,96559.84
2022-09-16T13:47:16.372Z,96549.04
2022-09-16T13:49:47.790Z,96549.53
2022-09-16T13:52:30.566Z,96552.56
2022-09-16T13:55:12.712Z,96551.30
2022-09-16T13:58:03.092Z,96551.95
2022-09-16T14:00:45.949Z,96555.35
2022-09-16T14:03:35.564Z,96558.75
2022-09-16T14:06:16.336Z,96558.03
2022-09-16T14:08:51.737Z,96558.65
2022-09-16T14:11:29.351Z,96556.48
2022-09-16T14:14:05.530Z,96553.80
2022-09-16T14:16:35.459Z,96554.64
2022-09-16T14:19:05.797Z,96553.89
2022-09-16T14:21:33.532Z,96550.25
2022-09-16T14:24:17.339Z,96550.33
2022-09-16T14:26:56.305Z,96549.42
2022-09-16T14:29:26.796Z,96544.44
2022-09-16T14:31:55.738Z,96543.48
2022-09-16T14:34:29.746Z,96545.83
2022-09-16T14:36:58.707Z,96542.91
2022-09-16T14:39:30.303Z,96544.88
2022-09-16T14:42:05.281Z,96544.70
2022-09-16T14:44:39.414Z,96547.42
2022-09-16T14:47:50.711Z,96543.92
2022-09-16T14:50:04.702Z,96546.83
2022-09-16T14:52:33.803Z,96548.77
2022-09-16T14:55:01.837Z,96552.07
2022-09-16T14:57:30.034Z,96551.66
2022-09-16T15:00:00.886Z,96551.05
2022-09-16T15:02:41.540Z,96554.58
2022-09-16T15:05:18.574Z,96556.12
2022-09-16T15:08:12.136Z,96534.98
2022-09-16T15:10:44.601Z,96543.13
2022-09-16T15:13:05.300Z,96539.04
2022-09-16T15:15:35.145Z,96549.71
2022-09-16T15:18:07.590Z,96552.06
2022-09-16T15:20:38.394Z,96552.06
2022-09-16T15:25:38.338Z,96549.52
2022-09-16T15:28:16.101Z,96554.38
2022-09-16T15:30:55.318Z,96560.41
2022-09-16T15:33:28.788Z,96558.27
2022-09-16T15:35:56.649Z,96557.50
2022-09-16T15:38:24.061Z,96555.73
2022-09-16T15:41:03.405Z,96551.28
2022-09-16T15:43:42.456Z,96553.80
2022-09-16T15:46:20.281Z,96545.23
2022-09-16T15:48:50.923Z,96549.91
2022-09-16T15:51:39.559Z,96543.70
2022-09-16T15:54:16.534Z,96533.61
2022-09-16T15:57:15.983Z,96532.83
2022-09-16T16:00:15.869Z,96534.57
2022-09-16T16:02:52.912Z,96539.84
2022-09-16T16:05:27.223Z,96532.66
2022-09-16T16:07:57.317Z,96525.87
2022-09-16T16:10:29.351Z,96525.89
2022-09-16T16:13:00.485Z,96522.41
2022-09-16T16:15:31.121Z,96525.91
2022-09-16T16:18:02.792Z,96523.95
2022-09-16T16:20:33.317Z,96518.70
2022-09-16T16:23:01.973Z,96513.66
2022-09-16T16:25:53.871Z,96516.78
2022-09-16T16:28:25.400Z,96517.56
2022-09-16T16:30:53.123Z,96514.62
2022-09-16T16:33:20.758Z,96505.52
2022-09-16T16:36:07.353Z,96505.70
2022-09-16T16:38:35.008Z,96510.19
2022-09-16T16:41:02.414Z,96515.81
2022-09-16T16:43:31.326Z,96513.68
2022-09-16T16:45:58.997Z,96515.45
2022-09-16T16:48:28.278Z,96506.31
2022-09-16T16:50:58.366Z,96507.67
2022-09-16T16:53:27.195Z,96504.00
2022-09-16T16:55:55.196Z,96504.20
2022-09-16T16:58:22.474Z,96506.14
2022-09-16T17:00:50.519Z,96495.06
2022-09-16T17:03:18.534Z,96490.41
2022-09-16T17:05:45.930Z,96496.98
2022-09-16T17:08:13.737Z,96500.45
2022-09-16T17:10:43.070Z,96492.70
2022-09-16T17:13:10.557Z,96490.36
2022-09-16T17:15:37.907Z,96491.34
2022-09-16T17:18:08.460Z,96495.79
2022-09-16T17:20:36.206Z,96504.70
2022-09-16T17:23:06.678Z,96512.66
2022-09-16T17:25:34.450Z,96510.72
2022-09-16T17:28:02.222Z,96502.20
2022-09-16T17:30:30.001Z,96507.63
2022-09-16T17:32:57.768Z,96503.34
2022-09-16T17:35:25.774Z,96508.59
2022-09-16T17:37:53.259Z,96500.63
2022-09-16T17:40:21.374Z,96504.34
2022-09-16T17:42:52.239Z,96509.36
2022-09-16T17:45:19.578Z,96510.34
2022-09-16T17:47:47.032Z,96508.41
2022-09-16T17:50:19.734Z,96507.81
2022-09-16T17:52:45.801Z,96502.37
2022-09-16T17:55:13.700Z,96510.50
2022-09-16T17:57:41.097Z,96512.63
2022-09-16T18:00:08.985Z,96516.50
2022-09-16T18:02:42.709Z,96519.20
2022-09-16T18:05:19.771Z,96517.44
2022-09-16T18:08:19.876Z,96518.20
2022-09-16T18:31:21.048Z,96515.41
2022-09-16T18:34:19.490Z,96516.56
2022-09-16T19:59:02.857Z,96523.67
2022-09-16T20:05:26.193Z,96522.52
2022-09-16T20:08:19.659Z,96521.94
2022-09-16T20:14:37.520Z,96522.54
2022-09-16T20:17:26.744Z,96523.91
2022-09-16T20:22:48.582Z,96514.04
2022-09-16T20:25:26.730Z,96516.58
2022-09-16T20:27:57.208Z,96519.48
2022-09-16T20:30:30.941Z,96517.94
2022-09-16T20:32:58.661Z,96522.60
2022-09-16T20:35:48.038Z,96523.75
2022-09-16T20:38:26.620Z,96525.33
2022-09-16T20:40:54.699Z,96511.95
2022-09-16T20:43:30.137Z,96509.42
2022-09-16T20:46:03.924Z,96523.98
2022-09-16T20:48:34.753Z,96527.06
2022-09-16T20:51:12.078Z,96532.13
2022-09-16T21:09:31.731Z,96510.43
2022-09-16T21:21:46.962Z,96507.48
2022-09-16T21:24:18.995Z,96498.19
2022-09-16T21:26:56.032Z,96508.25
2022-09-16T21:29:34.269Z,96501.64
2022-09-16T21:32:37.184Z,96484.19
2022-09-16T21:39:24.814Z,96493.45
2022-09-16T21:41:55.785Z,96499.58
2022-09-16T21:44:25.559Z,96501.51
2022-09-16T21:46:57.029Z,96495.09
2022-09-16T21:49:41.248Z,96496.45
2022-09-16T22:06:10.339Z,96495.08
2022-09-16T22:11:53.739Z,96492.55
2022-09-16T22:14:23.528Z,96496.39
2022-09-16T22:17:14.720Z,96507.45
2022-09-16T22:20:15.547Z,96510.36
2022-09-16T22:22:49.940Z,96505.13
2022-09-16T22:25:48.383Z,96499.12
2022-09-16T22:28:38.609Z,96507.22
2022-09-16T22:31:30.271Z,96498.08
2022-09-16T22:34:08.767Z,96496.48
2022-09-16T22:39:47.784Z,96494.90
2022-09-16T22:42:19.214Z,96493.71
2022-09-16T22:44:53.455Z,96494.87
2022-09-16T22:47:23.383Z,96488.27
2022-09-16T22:49:56.778Z,96492.89
2022-09-16T22:52:34.303Z,96490.38
2022-09-16T22:55:03.189Z,96487.89
2022-09-16T22:57:32.615Z,96493.69
2022-09-16T23:00:00.393Z,96494.86
2022-09-16T23:02:46.296Z,96485.95
2022-09-16T23:11:48.688Z,96475.89
2022-09-16T23:14:50.730Z,96468.92
2022-09-16T23:17:34.926Z,96461.16
2022-09-16T23:32:57.458Z,96426.72
2022-09-16T23:35:27.398Z,96416.88
2022-09-16T23:37:56.451Z,96404.88
2022-09-16T23:40:30.080Z,96397.91
2022-09-16T23:42:58.347Z,96401.78
2022-09-16T23:45:28.242Z,96411.27
2022-09-16T23:48:02.020Z,96413.58
2022-09-16T23:50:45.421Z,96411.87
2022-09-16T23:53:28.243Z,96415.12
2022-09-16T23:56:00.146Z,96411.65
2022-09-16T23:58:32.943Z,96399.45
